KLNP Airport Information

Runway Information
Runway 06 Length 5280 ft width 100 ft
Elevation 2670 ft Threshold 0 ft Heading 56
Runway 24 Length 5280 ft Width 100 ft
Elevation 2684 ft Threshold 0 ft Heading 236
Airport Frequencies
Type AWOS Name AWOS 3 Frequency 118.6 MHZ
Type CNTR Name INDIANAPOL Frequency 126.57 MHZ
Type UNIC Name CTAF/UNICO Frequency 123 MHZ
Airport Navaids
Airport Weather Information & NOTAM
ADDS - METARS form results

(0606 UTC 30 July 2021)
Data provider http://aviationweather.gov/metar/data/
 
METAR text: KLNP 300555Z AUTO 25011KT 10SM -DZ SCT120 22/18 A3010 RMK AO2 LTG DSNT W AND NW
Conditions at: KLNP (WISE/LONESOME PI, VA, US) observed 0555 UTC 30 July 2021
Temperature: 22.0°C (72°F)
Dewpoint: 18.0°C (64°F) [RH = 78%]
Pressure (altimeter): 30.10 inches Hg (1019.4 mb)
Winds: from the WSW (250 degrees) at 13 MPH (11 knots; 5.7 m/s)
Visibility: 10 or more miles (16+ km)
Ceiling: at least 12,000 feet AGL
Clouds: scattered clouds at 12000 feet AGL
Weather: -DZ  (light drizzle)

METAR text: KLNP 300535Z AUTO 26005KT 10SM -RA CLR 22/18 A3009 RMK AO2 LTG DSNT W AND NW
Conditions at: KLNP (WISE/LONESOME PI, VA, US) observed 0535 UTC 30 July 2021
Temperature: 22.0°C (72°F)
Dewpoint: 18.0°C (64°F) [RH = 78%]
Pressure (altimeter): 30.09 inches Hg (1019.0 mb)
Winds: from the W (260 degrees) at 6 MPH (5 knots; 2.6 m/s)
Visibility: 10 or more miles (16+ km)
Ceiling: at least 12,000 feet AGL
Clouds: sky clear below 12,000 feet AGL
Weather: -RA  (light rain)

METAR text: KLNP 300515Z AUTO 23006KT 10SM SCT120 22/18 A3010 RMK AO2 LTG DSNT W AND NW
Conditions at: KLNP (WISE/LONESOME PI, VA, US) observed 0515 UTC 30 July 2021
Temperature: 22.0°C (72°F)
Dewpoint: 18.0°C (64°F) [RH = 78%]
Pressure (altimeter): 30.10 inches Hg (1019.4 mb)
Winds: from the SW (230 degrees) at 7 MPH (6 knots; 3.1 m/s)
Visibility: 10 or more miles (16+ km)
Ceiling: at least 12,000 feet AGL
Clouds: scattered clouds at 12000 feet AGL
Weather: automated observation with no human augmentation;
there may or may not be significant weather present at this time